Time;durP1;ratioP1;P1;durP2;ratioP2;P2;SDS_P1;SDS_P2;PMS_P1;PMS_P2;Temp;Humidity;BMP_temperature;BMP_pressure;BME280_temperature;BME280_humidity;BME280_pressure;Samples;Min_cycle;Max_cycle;Signal;HPM_P1;HPM_P2
2023/07/23 00:02:23;;;;;;;0.30;0.30;;;;;;;17.50;100.00;100019.81;4967155;28;20062;-88
2023/07/23 00:04:49;;;;;;;0.47;0.47;;;;;;;17.47;100.00;100017.97;4975648;28;20047;-88
2023/07/23 00:07:14;;;;;;;0.82;0.77;;;;;;;17.49;100.00;100017.50;4946345;28;20073;-87
2023/07/23 00:09:40;;;;;;;0.30;0.30;;;;;;;17.45;100.00;100017.69;4970616;28;20034;-88
2023/07/23 00:12:05;;;;;;;1.35;0.73;;;;;;;17.48;100.00;100025.13;4952123;28;20043;-88
2023/07/23 00:14:31;;;;;;;0.00;0.00;;;;;;;17.45;100.00;100033.75;4965426;28;20049;-88
2023/07/23 00:16:57;;;;;;;0.10;0.10;;;;;;;17.35;100.00;100023.91;4936517;28;20058;-88
2023/07/23 00:19:23;;;;;;;0.75;0.75;;;;;;;17.34;100.00;100017.50;4933998;28;20134;-87
2023/07/23 00:21:49;;;;;;;0.63;0.43;;;;;;;17.31;100.00;100017.72;4952109;28;20043;-88
2023/07/23 00:24:15;;;;;;;0.73;0.45;;;;;;;17.36;100.00;100025.41;4949612;28;20097;-87
2023/07/23 00:26:41;;;;;;;0.25;0.25;;;;;;;17.38;100.00;100020.91;4933337;28;20035;-88
2023/07/23 00:29:07;;;;;;;0.00;0.00;;;;;;;17.35;100.00;100027.44;4954471;28;20387;-88
2023/07/23 00:31:33;;;;;;;0.90;0.45;;;;;;;17.35;100.00;100019.03;4930710;28;20050;-88
2023/07/23 00:33:58;;;;;;;0.40;0.40;;;;;;;17.31;100.00;100035.28;4943287;28;20047;-88
2023/07/23 00:36:25;;;;;;;0.28;0.28;;;;;;;17.18;100.00;100037.63;4935917;28;20582;-88
2023/07/23 00:38:51;;;;;;;1.42;1.17;;;;;;;17.18;100.00;100035.59;4937238;28;20050;-88
2023/07/23 00:41:17;;;;;;;0.20;0.20;;;;;;;17.17;100.00;100038.88;4949731;28;20039;-88
2023/07/23 00:43:43;;;;;;;3.10;1.25;;;;;;;17.11;100.00;100024.75;4937857;28;20050;-88
2023/07/23 00:46:08;;;;;;;0.85;0.75;;;;;;;17.11;100.00;100024.75;4952307;28;20153;-88
2023/07/23 00:48:34;;;;;;;0.43;0.43;;;;;;;17.09;100.00;100024.47;4950676;28;20045;-88
2023/07/23 00:50:59;;;;;;;0.47;0.47;;;;;;;17.09;100.00;100026.50;4934493;28;20422;-89
2023/07/23 00:53:25;;;;;;;0.93;0.60;;;;;;;17.02;100.00;100026.88;4936296;28;20035;-88
2023/07/23 00:55:52;;;;;;;1.73;0.60;;;;;;;16.96;100.00;100029.56;4941996;28;20053;-88
2023/07/23 00:58:18;;;;;;;0.35;0.35;;;;;;;16.96;100.00;100028.78;4943833;28;20045;-88
2023/07/23 01:03:20;;;;;;;0.93;0.93;;;;;;;16.90;100.00;100022.31;5461942;23;20051;-85
2023/07/23 01:05:47;;;;;;;0.35;0.28;;;;;;;16.92;100.00;100025.41;4917835;28;20051;-86
2023/07/23 01:08:12;;;;;;;1.10;0.90;;;;;;;16.89;100.00;100020.75;4937163;28;20045;-86
2023/07/23 01:10:39;;;;;;;1.38;1.02;;;;;;;16.90;100.00;100013.91;4962283;28;20034;-85
2023/07/23 01:13:06;;;;;;;0.65;0.65;;;;;;;16.92;100.00;100017.00;4935377;28;20058;-86
2023/07/23 01:15:32;;;;;;;0.40;0.40;;;;;;;16.93;100.00;100015.75;4952888;28;20054;-87
2023/07/23 01:17:59;;;;;;;0.25;0.25;;;;;;;16.95;100.00;100010.41;4935585;28;20054;-85
2023/07/23 01:20:25;;;;;;;0.57;0.57;;;;;;;16.96;100.00;100020.38;4932889;28;20080;-85
2023/07/23 01:22:50;;;;;;;0.98;0.55;;;;;;;16.95;100.00;100025.22;4963610;28;20050;-86
2023/07/23 01:25:16;;;;;;;1.75;0.93;;;;;;;16.87;100.00;100012.81;4953030;28;20050;-86
2023/07/23 01:27:41;;;;;;;2.22;1.15;;;;;;;16.79;100.00;100001.22;4967443;28;20043;-86
2023/07/23 01:30:10;;;;;;;0.30;0.30;;;;;;;16.80;100.00;99990.81;4969253;28;20066;-86
2023/07/23 01:32:36;;;;;;;1.27;0.85;;;;;;;16.81;100.00;99994.38;4957857;28;20034;-86
2023/07/23 01:35:13;;;;;;;2.75;1.33;;;;;;;16.79;100.00;99998.44;4957035;28;20043;-86
2023/07/23 01:37:39;;;;;;;0.50;0.47;;;;;;;16.72;100.00;99998.81;4960071;28;20047;-86
2023/07/23 01:40:05;;;;;;;0.90;0.65;;;;;;;16.75;100.00;100006.25;4951235;28;20089;-86
2023/07/23 01:42:33;;;;;;;0.45;0.45;;;;;;;16.72;100.00;100000.84;4941309;28;20043;-85
2023/07/23 01:45:03;;;;;;;0.65;0.65;;;;;;;16.69;100.00;99996.97;4935300;28;20403;-86
2023/07/23 01:47:29;;;;;;;0.35;0.35;;;;;;;16.69;100.00;100001.78;4955402;28;20462;-86
2023/07/23 01:49:54;;;;;;;2.00;1.00;;;;;;;16.68;100.00;100001.03;4935908;28;20042;-86
2023/07/23 01:52:20;;;;;;;0.60;0.52;;;;;;;16.69;100.00;100005.38;4949433;28;20047;-86
2023/07/23 01:54:46;;;;;;;0.70;0.70;;;;;;;16.68;100.00;99995.41;4963127;28;20038;-85
2023/07/23 01:57:11;;;;;;;1.10;0.82;;;;;;;16.63;100.00;99987.69;4941185;28;20514;-86
2023/07/23 01:59:37;;;;;;;0.73;0.73;;;;;;;16.63;100.00;99981.28;4954427;28;20039;-86
2023/07/23 02:02:06;;;;;;;1.05;0.77;;;;;;;16.56;100.00;99976.81;4936000;28;20427;-86
2023/07/23 02:04:32;;;;;;;1.10;1.00;;;;;;;16.52;100.00;99981.84;4976366;28;20051;-86
2023/07/23 02:06:57;;;;;;;1.00;0.95;;;;;;;16.57;100.00;99986.03;4964774;28;20096;-86
2023/07/23 02:09:23;;;;;;;0.73;0.45;;;;;;;16.55;100.00;99986.47;4969808;28;20058;-86
2023/07/23 02:11:49;;;;;;;0.10;0.10;;;;;;;16.56;100.00;99988.03;4950853;28;20494;-86
2023/07/23 02:14:14;;;;;;;0.20;0.20;;;;;;;16.46;100.00;99989.34;4973608;28;20035;-86
2023/07/23 02:16:40;;;;;;;0.82;0.82;;;;;;;16.41;100.00;99986.44;4939725;28;20043;-85
2023/07/23 02:19:05;;;;;;;0.63;0.63;;;;;;;16.34;100.00;99973.56;4977151;28;20097;-86
2023/07/23 02:21:31;;;;;;;0.17;0.17;;;;;;;16.40;100.00;99990.47;4969384;28;20055;-86
2023/07/23 02:23:56;;;;;;;0.40;0.40;;;;;;;16.43;100.00;99995.13;4949139;28;20038;-85
2023/07/23 02:26:22;;;;;;;0.57;0.57;;;;;;;16.34;100.00;99982.75;4948650;29;20675;-86
2023/07/23 02:28:47;;;;;;;0.55;0.55;;;;;;;16.37;100.00;99991.44;4948990;28;20526;-85
2023/07/23 02:31:13;;;;;;;1.27;0.73;;;;;;;16.41;100.00;100004.00;4975925;28;20038;-85
2023/07/23 02:33:39;;;;;;;0.20;0.20;;;;;;;16.38;100.00;99999.34;4981122;28;20573;-86
2023/07/23 02:36:04;;;;;;;0.57;0.57;;;;;;;16.32;100.00;99990.84;4972456;28;20129;-86
2023/07/23 02:38:30;;;;;;;0.03;0.03;;;;;;;16.32;100.00;99995.69;4948773;28;20567;-86
2023/07/23 02:40:56;;;;;;;0.85;0.50;;;;;;;16.20;100.00;99988.28;4935979;28;20400;-86
2023/07/23 02:43:22;;;;;;;0.98;0.88;;;;;;;16.16;100.00;99999.66;4950721;28;20043;-86
2023/07/23 02:45:47;;;;;;;0.10;0.10;;;;;;;16.10;100.00;99997.97;4960280;28;20051;-86
2023/07/23 02:48:13;;;;;;;0.25;0.25;;;;;;;16.08;100.00;100000.50;4952360;28;20039;-86
2023/07/23 02:50:39;;;;;;;0.57;0.57;;;;;;;16.04;100.00;99997.09;4967372;28;20110;-86
2023/07/23 02:53:05;;;;;;;0.73;0.63;;;;;;;16.02;100.00;100011.56;4967813;28;20043;-86
2023/07/23 02:55:32;;;;;;;0.65;0.30;;;;;;;15.98;100.00;100008.16;4952069;28;20049;-86
2023/07/23 02:58:00;;;;;;;1.15;0.75;;;;;;;15.97;100.00;100015.03;4934618;28;20281;-86
2023/07/23 03:00:32;;;;;;;0.40;0.40;;;;;;;15.95;100.00;100005.53;4968843;28;20043;-85
2023/07/23 03:02:57;;;;;;;0.52;0.52;;;;;;;15.98;100.00;100004.59;4951817;28;20062;-86
2023/07/23 03:05:24;;;;;;;0.60;0.60;;;;;;;15.96;100.00;100007.09;4939755;28;20066;-86
2023/07/23 03:07:52;;;;;;;0.50;0.40;;;;;;;15.97;100.00;100005.84;4949234;28;20043;-85
2023/07/23 03:10:17;;;;;;;1.55;1.02;;;;;;;15.93;100.00;99996.88;4951470;28;20462;-86
2023/07/23 03:12:43;;;;;;;1.30;0.52;;;;;;;15.94;100.00;100001.19;4966388;28;20043;-89
2023/07/23 03:15:09;;;;;;;0.65;0.65;;;;;;;15.98;100.00;99999.00;4944267;28;20150;-87
2023/07/23 03:17:35;;;;;;;0.38;0.38;;;;;;;15.84;100.00;100006.06;4950534;28;20047;-87
2023/07/23 03:20:01;;;;;;;4.03;1.30;;;;;;;15.86;100.00;100014.75;4967905;28;20506;-87
2023/07/23 03:22:26;;;;;;;0.22;0.22;;;;;;;15.76;100.00;100016.84;4951656;28;20065;-86
2023/07/23 03:24:52;;;;;;;0.17;0.17;;;;;;;15.78;100.00;100013.53;4934534;28;20091;-87
2023/07/23 03:27:17;;;;;;;0.10;0.10;;;;;;;15.78;100.00;100013.53;4968910;28;20043;-87
2023/07/23 03:29:44;;;;;;;0.35;0.15;;;;;;;15.75;100.00;100012.47;4967576;28;20046;-87
2023/07/23 03:32:09;;;;;;;0.10;0.10;;;;;;;15.84;100.00;100015.25;4953370;28;20110;-87
2023/07/23 03:34:35;;;;;;;0.30;0.30;;;;;;;15.79;100.00;100021.47;4958555;28;20085;-87
2023/07/23 03:37:00;;;;;;;0.35;0.35;;;;;;;15.71;100.00;100014.69;4958172;28;20097;-87
2023/07/23 03:39:26;;;;;;;0.28;0.28;;;;;;;15.63;100.00;100021.84;4954517;28;20057;-86
2023/07/23 03:41:51;;;;;;;2.17;0.63;;;;;;;15.51;100.00;100010.88;4940556;28;20060;-87
2023/07/23 03:44:17;;;;;;;0.30;0.30;;;;;;;15.57;100.00;100020.94;4935967;28;20094;-87
2023/07/23 03:46:44;;;;;;;2.10;1.48;;;;;;;15.69;100.00;100014.34;4969725;28;20046;-87
2023/07/23 03:49:10;;;;;;;0.28;0.28;;;;;;;15.74;100.00;100012.94;4971079;28;20502;-87
2023/07/23 03:51:36;;;;;;;1.08;1.02;;;;;;;15.77;100.00;100018.34;4973575;28;20039;-87
2023/07/23 03:54:01;;;;;;;0.70;0.60;;;;;;;15.79;100.00;100004.69;4970548;28;20121;-86
2023/07/23 03:56:27;;;;;;;1.35;1.20;;;;;;;15.92;100.00;100017.69;4983795;28;20121;-87
2023/07/23 03:58:53;;;;;;;3.45;0.50;;;;;;;16.02;100.00;100007.97;4956080;28;20054;-88
2023/07/23 04:01:18;;;;;;;1.00;0.60;;;;;;;16.03;100.00;100006.75;4954818;28;20102;-87
2023/07/23 04:03:44;;;;;;;0.30;0.30;;;;;;;16.01;100.00;99998.06;4954388;28;20047;-87
2023/07/23 04:06:10;;;;;;;0.73;0.73;;;;;;;16.11;100.00;100008.72;4976982;28;20495;-88
2023/07/23 04:08:35;;;;;;;0.28;0.25;;;;;;;16.14;100.00;100006.97;4965385;28;20080;-88
2023/07/23 04:11:01;;;;;;;0.20;0.20;;;;;;;16.19;100.00;100009.13;4991620;28;20046;-87
2023/07/23 04:13:27;;;;;;;0.22;0.22;;;;;;;16.19;100.00;100009.13;4972482;28;20022;-88
2023/07/23 04:15:52;;;;;;;0.20;0.20;;;;;;;16.19;100.00;100004.31;4969582;28;20097;-87
2023/07/23 04:18:18;;;;;;;0.85;0.57;;;;;;;16.26;100.00;100014.34;4919258;28;20038;-87
2023/07/23 04:20:44;;;;;;;0.70;0.65;;;;;;;16.26;100.00;100014.34;4956004;28;20043;-87
2023/07/23 04:23:10;;;;;;;0.68;0.68;;;;;;;16.16;100.00;100022.06;4941325;28;20193;-87
2023/07/23 04:25:35;;;;;;;0.17;0.17;;;;;;;16.08;100.00;100014.50;4960573;28;20046;-89
2023/07/23 04:28:01;;;;;;;1.23;1.13;;;;;;;16.19;100.00;100021.09;4970378;28;20054;-87
2023/07/23 04:30:30;;;;;;;0.13;0.13;;;;;;;16.14;100.00;100009.78;4936605;28;20051;-86
2023/07/23 04:32:55;;;;;;;0.32;0.32;;;;;;;16.00;100.00;100024.47;4942038;28;20034;-87
2023/07/23 04:35:21;;;;;;;0.20;0.20;;;;;;;16.03;100.00;100023.53;4970510;28;20051;-87
2023/07/23 04:37:47;;;;;;;0.40;0.40;;;;;;;16.04;100.00;100022.28;4952652;28;20089;-87
2023/07/23 04:40:15;;;;;;;0.30;0.30;;;;;;;15.95;100.00;100016.72;4949186;28;20138;-87
2023/07/23 04:42:40;;;;;;;0.40;0.35;;;;;;;16.00;100.00;100021.69;4959227;28;20085;-87
2023/07/23 04:45:06;;;;;;;0.25;0.25;;;;;;;16.07;100.00;100021.31;4964104;28;20039;-87
2023/07/23 04:47:32;;;;;;;0.25;0.25;;;;;;;16.14;100.00;100012.56;4967019;28;20058;-87
2023/07/23 04:49:57;;;;;;;0.57;0.52;;;;;;;16.22;100.00;100019.38;4950526;28;20525;-87
2023/07/23 04:52:23;;;;;;;0.17;0.17;;;;;;;16.33;100.00;100020.41;4961742;28;20047;-87
2023/07/23 04:54:49;;;;;;;0.50;0.50;;;;;;;16.34;100.00;100018.34;4953447;28;20077;-87
2023/07/23 04:57:14;;;;;;;0.52;0.43;;;;;;;16.42;100.00;100019.53;4960244;28;20505;-87
2023/07/23 04:59:40;;;;;;;0.10;0.10;;;;;;;16.49;100.00;100036.00;4971713;28;20057;-87
2023/07/23 05:02:05;;;;;;;0.55;0.55;;;;;;;16.58;100.00;100024.75;4967971;28;20039;-87
2023/07/23 05:04:31;;;;;;;0.90;0.63;;;;;;;16.67;100.00;100024.66;4969182;28;20059;-87
2023/07/23 05:06:56;;;;;;;0.25;0.25;;;;;;;16.72;100.00;100028.84;4967614;28;20038;-87
2023/07/23 05:09:22;;;;;;;1.55;1.08;;;;;;;16.78;100.00;100024.88;4952925;28;20031;-87
2023/07/23 05:11:48;;;;;;;1.10;0.65;;;;;;;16.83;100.00;100023.44;4969143;28;20053;-88
2023/07/23 05:14:15;;;;;;;0.98;0.85;;;;;;;16.87;100.00;100023.25;4967701;28;20050;-87
2023/07/23 05:16:40;;;;;;;0.17;0.17;;;;;;;16.90;100.00;100025.13;4950943;28;20045;-87
2023/07/23 05:19:06;;;;;;;0.10;0.10;;;;;;;16.96;100.00;100035.16;4969898;28;20039;-86
2023/07/23 05:21:34;;;;;;;0.80;0.35;;;;;;;16.91;100.00;100046.25;4970371;28;20109;-87
2023/07/23 05:24:01;;;;;;;1.08;1.08;;;;;;;16.69;100.00;100038.22;4963553;28;20129;-88
2023/07/23 05:26:27;;;;;;;0.55;0.55;;;;;;;16.67;100.00;100049.88;4956979;28;20458;-87
2023/07/23 05:28:52;;;;;;;0.55;0.55;;;;;;;16.76;100.00;100051.84;4950281;28;20047;-87
2023/07/23 05:31:17;;;;;;;0.20;0.20;;;;;;;16.86;100.00;100044.91;4962853;28;20070;-87
2023/07/23 05:33:43;;;;;;;0.20;0.20;;;;;;;16.97;100.00;100050.72;4956596;28;20037;-88
2023/07/23 05:36:09;;;;;;;1.20;0.55;;;;;;;17.07;100.00;100045.81;4963603;28;20510;-87
2023/07/23 05:38:34;;;;;;;0.50;0.50;;;;;;;17.18;100.00;100054.44;4956666;28;20055;-90
2023/07/23 05:41:00;;;;;;;0.43;0.43;;;;;;;17.32;100.00;100066.91;4951613;28;20042;-89
2023/07/23 05:43:29;;;;;;;0.52;0.52;;;;;;;17.37;100.00;100055.78;4969371;28;20043;-89
2023/07/23 05:45:55;;;;;;;0.13;0.13;;;;;;;17.46;100.00;100066.91;4961174;28;20093;-88
2023/07/23 05:48:21;;;;;;;0.65;0.60;;;;;;;17.58;100.00;100049.06;4950682;28;20055;-90
2023/07/23 05:50:47;;;;;;;0.73;0.70;;;;;;;17.59;100.00;100067.41;4979421;28;20054;-88
2023/07/23 05:53:12;;;;;;;0.40;0.40;;;;;;;17.66;100.00;100058.63;4963917;28;20154;-88
2023/07/23 05:55:38;;;;;;;0.73;0.60;;;;;;;17.73;100.00;100059.47;4931659;28;20406;-87
2023/07/23 05:58:03;;;;;;;0.95;0.75;;;;;;;17.85;100.00;100064.00;4965726;28;20454;-87
2023/07/23 06:00:29;;;;;;;0.65;0.65;;;;;;;17.95;100.00;100054.22;4981562;28;20114;-88
2023/07/23 06:02:55;;;;;;;1.08;0.75;;;;;;;18.07;100.00;100061.56;4969138;28;20046;-89
2023/07/23 06:05:20;;;;;;;0.15;0.15;;;;;;;18.21;100.00;100066.34;4969252;28;20558;-88
2023/07/23 06:07:46;;;;;;;0.90;0.88;;;;;;;18.17;100.00;100068.56;4979992;28;20042;-88
2023/07/23 06:10:12;;;;;;;1.08;0.65;;;;;;;18.16;100.00;100069.81;4960341;28;20053;-88
2023/07/23 06:12:37;;;;;;;0.20;0.20;;;;;;;18.38;100.00;100078.59;4959051;28;20039;-87
2023/07/23 06:15:03;;;;;;;1.27;1.13;;;;;;;18.51;100.00;100062.16;4965142;28;20085;-88
2023/07/23 06:17:29;;;;;;;0.57;0.57;;;;;;;18.78;100.00;100068.66;4969148;28;20053;-88
2023/07/23 06:19:54;;;;;;;0.40;0.40;;;;;;;18.97;100.00;100069.88;4966889;28;20462;-88
2023/07/23 06:22:20;;;;;;;1.20;0.80;;;;;;;19.18;100.00;100062.97;4964861;28;20410;-88
2023/07/23 06:24:45;;;;;;;0.93;0.90;;;;;;;19.44;100.00;100068.63;4947325;28;20117;-87
2023/07/23 06:27:11;;;;;;;1.15;0.45;;;;;;;19.61;100.00;100068.78;4967235;28;20031;-88
2023/07/23 06:29:37;;;;;;;0.20;0.20;;;;;;;19.71;100.00;100078.56;4964187;28;20097;-89
2023/07/23 06:32:02;;;;;;;1.10;1.00;;;;;;;19.80;100.00;100067.16;4948941;28;20082;-89
2023/07/23 06:34:28;;;;;;;3.47;0.85;;;;;;;19.96;100.00;100069.31;4933119;28;20165;-89
2023/07/23 06:36:53;;;;;;;1.13;0.77;;;;;;;19.98;100.00;100072.38;4965235;28;20043;-89
2023/07/23 06:39:22;;;;;;;0.55;0.50;;;;;;;20.12;100.00;100065.06;4948875;28;20043;-88
2023/07/23 06:42:00;;;;;;;1.15;0.70;;;;;;;20.23;100.00;100060.28;4952226;28;20046;-89
2023/07/23 06:44:26;;;;;;;0.50;0.50;;;;;;;20.62;100.00;100080.25;4968630;28;20035;-90
2023/07/23 06:46:51;;;;;;;1.08;1.02;;;;;;;20.78;100.00;100081.59;4949281;28;20046;-88
2023/07/23 06:49:17;;;;;;;1.63;0.90;;;;;;;20.88;100.00;100066.75;4950305;28;20484;-90
2023/07/23 06:51:46;;;;;;;0.22;0.22;;;;;;;21.16;100.00;100074.56;4948919;28;20054;-90
2023/07/23 06:54:13;;;;;;;0.38;0.30;;;;;;;21.24;100.00;100067.91;4967884;28;20039;-89
2023/07/23 06:56:38;;;;;;;0.38;0.38;;;;;;;21.41;100.00;100070.75;4968224;28;21244;-88
2023/07/23 06:59:04;;;;;;;0.68;0.65;;;;;;;21.75;100.00;100065.91;4960491;28;20055;-90
2023/07/23 07:01:31;;;;;;;0.70;0.70;;;;;;;21.88;100.00;100079.53;4948244;28;20142;-88
2023/07/23 07:03:58;;;;;;;0.47;0.47;;;;;;;22.12;100.00;100074.88;4941779;28;20051;-90
2023/07/23 07:06:24;;;;;;;0.57;0.57;;;;;;;22.10;100.00;100073.88;4930418;28;20494;-89
2023/07/23 07:08:49;;;;;;;0.57;0.57;;;;;;;21.58;100.00;100073.59;4936187;28;20078;-91
2023/07/23 07:11:19;;;;;;;1.35;1.25;;;;;;;21.22;100.00;100061.25;4960818;28;20066;-89
2023/07/23 07:13:45;;;;;;;0.57;0.50;;;;;;;21.51;100.00;100065.66;4939643;28;20135;-88
2023/07/23 07:16:10;;;;;;;0.35;0.35;;;;;;;21.95;100.00;100079.03;4958811;28;20050;-89
2023/07/23 07:18:36;;;;;;;0.43;0.43;;;;;;;22.10;100.00;100069.00;4953640;28;20114;-89
2023/07/23 07:21:02;;;;;;;0.55;0.30;;;;;;;22.48;100.00;100080.75;4951269;28;20104;-90
2023/07/23 07:23:28;;;;;;;0.43;0.43;;;;;;;22.81;100.00;100080.63;4949752;28;20051;-87
2023/07/23 07:25:59;;;;;;;0.13;0.13;;;;;;;23.05;100.00;100066.63;4956139;28;20042;-89
2023/07/23 07:28:25;;;;;;;0.40;0.40;;;;;;;23.21;100.00;100071.41;4949408;28;20180;-88
2023/07/23 07:30:51;;;;;;;0.65;0.65;;;;;;;23.55;100.00;100079.72;4955104;28;20055;-89
2023/07/23 07:33:16;;;;;;;0.25;0.25;;;;;;;23.81;100.00;100080.03;4949485;28;20045;-88
2023/07/23 07:35:43;;;;;;;1.15;1.05;;;;;;;23.80;100.00;100078.50;4945430;28;20534;-89
2023/07/23 07:38:09;;;;;;;0.55;0.38;;;;;;;24.15;100.00;100075.63;4951422;28;20045;-89
2023/07/23 07:40:38;;;;;;;0.30;0.30;;;;;;;24.38;100.00;100076.19;4932802;28;20402;-89
2023/07/23 07:43:04;;;;;;;2.35;1.05;;;;;;;24.40;100.00;100078.47;4956721;28;20086;-89
2023/07/23 07:45:29;;;;;;;0.70;0.70;;;;;;;24.57;100.00;100081.88;4947768;28;20058;-88
2023/07/23 07:47:55;;;;;;;1.30;1.20;;;;;;;24.64;100.00;100086.97;4964979;28;20043;-89
2023/07/23 07:50:20;;;;;;;0.77;0.60;;;;;;;24.94;100.00;100081.22;4967229;28;20078;-89
2023/07/23 07:52:46;;;;;;;0.30;0.30;;;;;;;25.21;100.00;100087.81;4950979;28;20093;-89
2023/07/23 07:55:12;;;;;;;0.38;0.25;;;;;;;25.38;100.00;100080.59;4957827;28;20049;-89
2023/07/23 07:57:38;;;;;;;0.65;0.65;;;;;;;25.56;100.00;100087.56;4940449;28;20047;-89
2023/07/23 08:00:06;;;;;;;0.40;0.40;;;;;;;25.29;100.00;100086.66;4964437;28;20078;-90
2023/07/23 08:02:36;;;;;;;0.65;0.65;;;;;;;25.64;100.00;100085.63;4944120;28;20043;-89
2023/07/23 08:05:02;;;;;;;0.52;0.52;;;;;;;25.83;99.97;100086.38;4933115;28;20057;-89
2023/07/23 08:07:27;;;;;;;0.93;0.77;;;;;;;26.13;99.23;100088.16;4947076;28;20126;-89
2023/07/23 08:09:53;;;;;;;0.30;0.30;;;;;;;26.05;100.00;100081.59;4950436;28;20034;-90
2023/07/23 08:12:19;;;;;;;0.47;0.47;;;;;;;26.26;94.83;100091.06;4950150;28;20057;-90
2023/07/23 08:14:45;;;;;;;0.47;0.47;;;;;;;26.19;92.34;100088.84;4964087;28;20038;-89
2023/07/23 08:17:11;;;;;;;0.28;0.28;;;;;;;26.04;95.08;100080.84;4986800;28;20382;-89
2023/07/23 08:19:37;;;;;;;0.60;0.60;;;;;;;25.94;93.70;100089.00;4962033;28;20499;-91
2023/07/23 08:22:03;;;;;;;0.63;0.57;;;;;;;26.39;95.47;100082.56;4932289;28;20050;-90
2023/07/23 08:24:29;;;;;;;0.38;0.38;;;;;;;26.74;88.87;100070.72;4947116;28;20157;-89
2023/07/23 08:26:57;;;;;;;0.82;0.65;;;;;;;26.83;84.58;100075.19;4959671;28;20532;-89
2023/07/23 08:29:24;;;;;;;0.47;0.47;;;;;;;27.05;83.71;100071.16;4949989;28;20078;-90
2023/07/23 08:31:50;;;;;;;0.85;0.85;;;;;;;27.28;82.88;100070.09;4932891;28;20340;-89
2023/07/23 08:34:17;;;;;;;0.40;0.40;;;;;;;27.44;79.23;100068.19;4960854;28;20121;-89
2023/07/23 08:36:44;;;;;;;0.45;0.45;;;;;;;27.50;80.26;100060.28;4962887;28;20042;-89
2023/07/23 08:39:09;;;;;;;2.08;0.88;;;;;;;27.36;82.97;100068.09;4960513;28;20054;-90
2023/07/23 08:41:37;;;;;;;1.52;1.15;;;;;;;27.42;82.57;100064.38;4965700;28;20051;-89
2023/07/23 08:44:21;;;;;;;1.65;0.95;;;;;;;27.69;78.75;100069.41;4931116;28;20062;-90
2023/07/23 08:46:47;;;;;;;1.25;0.60;;;;;;;27.65;79.47;100059.69;4951105;28;20146;-90
2023/07/23 08:49:13;;;;;;;1.85;1.05;;;;;;;27.87;75.88;100052.63;4952071;28;20554;-88
2023/07/23 08:51:47;;;;;;;0.50;0.50;;;;;;;27.88;76.13;100059.88;4950485;28;20493;-88
2023/07/23 08:54:14;;;;;;;0.93;0.88;;;;;;;28.23;75.05;100056.38;4953176;28;20081;-90
2023/07/23 08:56:41;;;;;;;0.30;0.30;;;;;;;27.87;69.98;100033.44;4935201;28;20031;-89
2023/07/23 08:59:08;;;;;;;0.60;0.60;;;;;;;27.86;73.00;100051.13;4932632;28;20058;-89
2023/07/23 09:01:38;;;;;;;0.25;0.25;;;;;;;28.07;76.42;100052.63;4948050;28;20569;-90
2023/07/23 09:04:06;;;;;;;0.32;0.32;;;;;;;28.09;73.32;100052.88;4954575;28;20091;-90
2023/07/23 09:06:31;;;;;;;0.38;0.38;;;;;;;28.49;71.34;100049.69;4960062;28;20514;-90
2023/07/23 09:09:03;;;;;;;0.40;0.40;;;;;;;28.72;65.46;100042.81;4949990;28;20070;-90
2023/07/23 09:11:28;;;;;;;0.43;0.43;;;;;;;28.71;67.32;100047.00;4928212;28;20043;-89
2023/07/23 09:13:57;;;;;;;1.05;0.88;;;;;;;28.63;67.01;100048.28;4963213;28;20042;-89
2023/07/23 09:16:23;;;;;;;0.75;0.75;;;;;;;29.03;65.59;100045.81;4954344;28;20086;-90
2023/07/23 09:18:49;;;;;;;0.52;0.52;;;;;;;28.65;63.79;100040.66;4940814;28;20140;-89
2023/07/23 09:21:25;;;;;;;1.08;0.88;;;;;;;28.91;65.30;100041.78;4945342;28;20109;-90
2023/07/23 09:23:55;;;;;;;0.45;0.45;;;;;;;29.16;62.84;100037.84;4937440;28;20039;-90
2023/07/23 09:26:30;;;;;;;0.63;0.60;;;;;;;29.14;58.65;100028.31;4921584;28;20129;-89
2023/07/23 09:28:57;;;;;;;0.55;0.50;;;;;;;28.35;61.97;100029.06;4959563;28;20054;-88
2023/07/23 09:31:26;;;;;;;2.65;1.27;;;;;;;28.42;63.24;100034.06;4932522;28;20149;-90
2023/07/23 09:33:59;;;;;;;0.40;0.40;;;;;;;28.53;65.68;100028.03;4946060;28;20035;-89
2023/07/23 09:36:26;;;;;;;0.82;0.63;;;;;;;28.87;62.75;100044.22;4949836;28;20046;-89
2023/07/23 09:39:00;;;;;;;0.98;0.75;;;;;;;29.23;61.42;100030.66;4946376;28;20039;-90
2023/07/23 09:41:29;;;;;;;0.38;0.38;;;;;;;29.34;58.67;100036.03;4947950;28;20055;-89
2023/07/23 09:43:57;;;;;;;0.77;0.77;;;;;;;29.13;58.68;100026.78;4959085;28;20035;-90
2023/07/23 09:46:22;;;;;;;0.30;0.30;;;;;;;28.65;62.49;100040.66;4965233;28;20097;-89
2023/07/23 09:48:48;;;;;;;0.75;0.70;;;;;;;28.15;65.46;100015.63;4954271;28;20055;-90
2023/07/23 09:51:14;;;;;;;0.52;0.52;;;;;;;27.76;67.99;100019.50;4944473;28;20113;-89
2023/07/23 09:53:47;;;;;;;0.40;0.40;;;;;;;27.95;68.09;100016.41;4943867;28;20515;-89
2023/07/23 09:56:14;;;;;;;0.30;0.30;;;;;;;28.08;66.64;100022.78;4945776;28;20093;-90
2023/07/23 09:58:41;;;;;;;0.73;0.68;;;;;;;28.49;65.78;100021.94;4936127;28;20037;-89
2023/07/23 10:01:07;;;;;;;0.38;0.38;;;;;;;28.90;65.27;100018.16;4953284;28;20042;-91
2023/07/23 10:03:33;;;;;;;0.60;0.60;;;;;;;29.39;60.22;100009.38;4956448;28;20043;-90
2023/07/23 10:05:59;;;;;;;0.50;0.50;;;;;;;29.47;55.80;100024.44;4954775;28;20356;-90
2023/07/23 10:08:30;;;;;;;0.55;0.55;;;;;;;29.56;56.68;100006.69;4952366;28;20466;-90
2023/07/23 10:10:56;;;;;;;0.40;0.40;;;;;;;29.22;59.51;99994.84;4964776;28;20058;-90
2023/07/23 10:13:22;;;;;;;0.60;0.60;;;;;;;29.17;60.71;100015.75;4974144;28;20537;-90
2023/07/23 10:15:48;;;;;;;0.57;0.40;;;;;;;29.45;57.75;100004.22;4961218;28;20043;-90
2023/07/23 10:18:14;;;;;;;0.60;0.60;;;;;;;29.49;57.58;100001.75;4955213;28;20034;-90
2023/07/23 10:20:40;;;;;;;0.25;0.25;;;;;;;29.65;58.05;100008.22;4958154;28;20057;-90
2023/07/23 10:23:06;;;;;;;0.40;0.40;;;;;;;29.79;56.66;100005.97;4948550;28;20039;-90
2023/07/23 10:25:34;;;;;;;0.43;0.40;;;;;;;29.56;57.87;100000.25;4944984;28;20515;-90
2023/07/23 10:28:05;;;;;;;0.32;0.32;;;;;;;29.63;59.78;100000.25;4961561;28;20054;-90
2023/07/23 10:30:31;;;;;;;0.22;0.22;;;;;;;29.74;56.72;100009.75;4966103;28;20129;-90
2023/07/23 10:33:09;;;;;;;0.65;0.65;;;;;;;29.99;59.08;100007.88;4922922;28;20113;-90
2023/07/23 10:35:53;;;;;;;0.52;0.52;;;;;;;30.00;59.90;99997.97;4953762;28;20090;-89
2023/07/23 10:38:19;;;;;;;0.47;0.45;;;;;;;29.72;55.09;100001.78;4961677;28;20051;-90
2023/07/23 10:40:46;;;;;;;0.95;0.85;;;;;;;29.73;56.54;100003.28;4948822;28;20494;-89
2023/07/23 10:43:12;;;;;;;0.30;0.30;;;;;;;29.75;56.88;100005.56;4955205;28;20070;-89
2023/07/23 10:45:37;;;;;;;0.20;0.20;;;;;;;29.89;56.08;100001.19;4968855;28;20074;-90
2023/07/23 10:48:04;;;;;;;0.60;0.40;;;;;;;30.05;57.67;99994.13;4957823;28;20121;-90
2023/07/23 10:50:30;;;;;;;0.57;0.57;;;;;;;30.09;54.72;99991.66;4958552;28;20461;-90
2023/07/23 10:53:07;;;;;;;0.90;0.40;;;;;;;30.09;53.72;99983.84;4952016;28;20035;-90
2023/07/23 10:55:47;;;;;;;0.50;0.50;;;;;;;29.92;53.88;99995.13;4954596;28;20070;-90
2023/07/23 10:58:15;;;;;;;0.63;0.63;;;;;;;29.81;55.36;99994.69;4954406;28;20043;-90
2023/07/23 11:00:45;;;;;;;0.88;0.73;;;;;;;30.02;53.29;99978.13;4962510;28;20506;-91
2023/07/23 11:03:18;;;;;;;0.40;0.40;;;;;;;30.30;53.49;99975.00;4949080;28;20773;-90
2023/07/23 11:05:44;;;;;;;0.45;0.45;;;;;;;30.50;51.45;99976.88;4948975;28;20039;-89
2023/07/23 11:08:14;;;;;;;0.75;0.75;;;;;;;30.77;51.30;99977.16;4928333;28;20041;-90
2023/07/23 11:11:00;;;;;;;0.55;0.52;;;;;;;30.93;48.28;99975.00;4941225;28;20051;-90
2023/07/23 11:13:32;;;;;;;0.20;0.20;;;;;;;30.25;49.86;99978.09;4953214;29;20066;-90
2023/07/23 11:15:59;;;;;;;0.70;0.55;;;;;;;30.27;52.03;99973.31;4941570;28;20120;-90
2023/07/23 11:18:25;;;;;;;0.60;0.60;;;;;;;30.66;50.28;99959.66;4934162;29;20549;-90
2023/07/23 11:20:52;;;;;;;0.43;0.43;;;;;;;30.81;51.16;99959.59;4934827;29;20134;-91
2023/07/23 11:23:20;;;;;;;0.32;0.32;;;;;;;30.70;50.38;99948.56;4909366;28;20035;-90